Time;durP1;ratioP1;P1;durP2;ratioP2;P2;SDS_P1;SDS_P2;PMS_P1;PMS_P2;Temp;Humidity;BMP_temperature;BMP_pressure;BME280_temperature;BME280_humidity;BME280_pressure;Samples;Min_cycle;Max_cycle;Signal;HPM_P1;HPM_P2
2021/09/14 00:06:00;;;;;;;22.17;16.20;;;;;;;19.20;100.00;99329.86;4127928;85;28541;-81
2021/09/14 00:12:03;;;;;;;23.07;14.43;;;;;;;19.32;100.00;99320.55;4137930;85;28492;-81
2021/09/14 00:18:05;;;;;;;24.82;15.55;;;;;;;19.30;100.00;99314.55;4126543;85;28500;-80
2021/09/14 00:24:06;;;;;;;21.20;14.85;;;;;;;19.48;100.00;99308.44;4129406;85;28481;-83
2021/09/14 00:30:09;;;;;;;23.38;16.42;;;;;;;19.47;100.00;99315.52;4180184;84;28464;-79
2021/09/14 00:36:10;;;;;;;24.25;15.45;;;;;;;19.34;100.00;99310.98;4131258;84;28474;-80
2021/09/14 00:42:12;;;;;;;23.18;15.38;;;;;;;19.23;100.00;99312.14;4186269;84;28467;-80
2021/09/14 00:48:13;;;;;;;23.67;15.53;;;;;;;19.40;100.00;99310.95;4219984;84;28457;-81
2021/09/14 00:54:17;;;;;;;22.10;14.80;;;;;;;19.29;100.00;99310.20;4189825;84;28478;-80
2021/09/14 01:00:18;;;;;;;21.68;14.10;;;;;;;19.40;100.00;99306.87;4143036;84;28554;-79
2021/09/14 01:06:19;;;;;;;22.13;14.65;;;;;;;19.39;100.00;99306.04;4146814;85;28482;-80
2021/09/14 01:12:21;;;;;;;22.50;15.30;;;;;;;19.18;100.00;99307.53;4091953;87;28470;-80
2021/09/14 01:18:23;;;;;;;23.75;16.82;;;;;;;19.19;100.00;99301.55;4091060;86;28496;-81
2021/09/14 01:24:24;;;;;;;25.05;16.23;;;;;;;18.84;100.00;99308.77;4139502;86;28875;-79
2021/09/14 01:30:32;;;;;;;23.92;15.20;;;;;;;18.92;100.00;99304.11;4127478;85;28524;-79
2021/09/14 01:36:34;;;;;;;21.17;14.98;;;;;;;18.93;100.00;99305.73;4122190;86;28445;-81
2021/09/14 01:42:36;;;;;;;27.37;18.05;;;;;;;18.88;100.00;99309.30;4123117;86;28487;-78
2021/09/14 01:48:39;;;;;;;24.70;16.65;;;;;;;18.54;100.00;99314.08;4122872;86;28509;-81
2021/09/14 01:54:42;;;;;;;24.57;15.88;;;;;;;18.95;100.00;99312.54;4122954;86;28530;-81
2021/09/14 02:00:58;;;;;;;21.10;15.13;;;;;;;18.85;100.00;99316.67;4123393;86;28449;-81
2021/09/14 02:38:57;;;;;;;22.13;15.43;;;;;;;18.30;100.00;99316.05;4154562;84;28493;-81
2021/09/14 03:03:08;;;;;;;21.17;14.28;;;;;;;17.97;100.00;99323.14;4143962;86;28544;-79
2021/09/14 03:09:10;;;;;;;21.45;14.07;;;;;;;17.88;100.00;99316.61;4144034;84;28521;-81
2021/09/14 03:15:11;;;;;;;20.92;13.50;;;;;;;17.93;100.00;99312.55;4143664;86;28555;-80
2021/09/14 03:21:15;;;;;;;18.95;13.18;;;;;;;17.95;100.00;99300.02;4129508;84;28526;-79
2021/09/14 03:27:17;;;;;;;21.40;14.23;;;;;;;17.94;100.00;99308.73;4118311;86;28486;-79
2021/09/14 03:33:20;;;;;;;20.75;14.13;;;;;;;17.66;100.00;99304.67;4118394;86;28486;-80
2021/09/14 03:39:22;;;;;;;21.50;14.10;;;;;;;17.55;100.00;99303.31;4118111;86;28501;-81
2021/09/14 03:45:27;;;;;;;20.20;14.70;;;;;;;17.50;100.00;99301.94;4118456;86;28528;-81
2021/09/14 03:51:30;;;;;;;22.62;15.13;;;;;;;17.41;100.00;99300.30;4119037;86;28518;-81
2021/09/14 03:57:31;;;;;;;26.90;16.05;;;;;;;17.40;100.00;99307.36;4171905;85;28560;-81
2021/09/14 04:09:35;;;;;;;19.85;14.18;;;;;;;17.37;100.00;99310.62;4178840;85;28492;-80
2021/09/14 04:15:39;;;;;;;21.68;14.28;;;;;;;17.25;100.00;99312.22;4178678;85;28513;-81
2021/09/14 04:21:42;;;;;;;23.22;14.28;;;;;;;17.28;100.00;99314.39;4168795;84;28528;-81
2021/09/14 04:27:45;;;;;;;21.70;14.98;;;;;;;17.07;100.00;99320.34;4154378;84;28496;-80
2021/09/14 04:33:47;;;;;;;25.70;14.47;;;;;;;16.89;100.00;99322.97;4105919;85;28494;-82
2021/09/14 04:39:48;;;;;;;21.85;14.98;;;;;;;16.96;100.00;99332.50;4101169;87;28478;-81
2021/09/14 04:45:50;;;;;;;24.27;14.83;;;;;;;16.84;100.00;99334.07;4111334;85;28506;-81
2021/09/14 04:51:52;;;;;;;27.37;15.98;;;;;;;16.76;100.00;99345.44;4134509;86;28574;-81
2021/09/14 04:57:54;;;;;;;24.67;14.80;;;;;;;17.11;100.00;99345.87;4111863;87;28493;-82
2021/09/14 05:03:56;;;;;;;21.60;14.03;;;;;;;17.10;100.00;99342.88;4136070;86;28492;-78
2021/09/14 05:09:59;;;;;;;24.23;15.08;;;;;;;17.28;100.00;99347.83;4136315;85;28504;-81
2021/09/14 05:16:01;;;;;;;36.95;22.13;;;;;;;17.21;100.00;99349.97;4112696;85;28504;-82
2021/09/14 05:22:19;;;;;;;28.32;15.45;;;;;;;17.46;100.00;99356.57;4102608;85;28492;-82
2021/09/14 05:28:19;;;;;;;27.70;15.23;;;;;;;17.60;100.00;99356.87;4110843;85;28529;-83
2021/09/14 05:34:22;;;;;;;34.27;20.92;;;;;;;17.76;100.00;99359.59;4136220;86;28505;-86
2021/09/14 05:40:23;;;;;;;23.83;15.48;;;;;;;18.01;100.00;99360.14;4133792;85;28536;-87
2021/09/14 05:46:25;;;;;;;23.50;15.68;;;;;;;18.25;100.00;99365.03;4194332;85;28576;-83
2021/09/14 05:52:28;;;;;;;27.80;15.70;;;;;;;18.44;100.00;99368.55;4194501;85;28474;-85
2021/09/14 05:58:31;;;;;;;23.87;15.70;;;;;;;18.74;100.00;99355.95;4194152;85;28553;-83
2021/09/14 06:04:33;;;;;;;22.58;14.95;;;;;;;18.89;100.00;99360.52;4148010;85;28521;-81
2021/09/14 06:10:34;;;;;;;24.35;15.32;;;;;;;19.01;100.00;99362.97;4129014;85;28471;-81
2021/09/14 06:16:47;;;;;;;25.65;15.13;;;;;;;19.28;100.00;99364.45;4117747;85;28560;-82
2021/09/14 06:22:50;;;;;;;26.85;16.67;;;;;;;19.32;100.00;99368.27;4118047;85;28475;-85
2021/09/14 06:28:51;;;;;;;22.20;15.35;;;;;;;19.33;100.00;99368.52;4121743;85;28524;-82
2021/09/14 06:34:53;;;;;;;24.12;15.55;;;;;;;19.35;100.00;99372.58;4117902;86;28476;-82
2021/09/14 06:40:54;;;;;;;23.25;15.55;;;;;;;19.47;100.00;99364.59;4059163;87;28489;-82
2021/09/14 06:46:58;;;;;;;23.57;14.45;;;;;;;19.75;100.00;99360.87;4055968;86;28583;-84
2021/09/14 06:53:00;;;;;;;21.73;14.95;;;;;;;19.90;100.00;99358.04;4040930;88;28529;-83
2021/09/14 06:59:02;;;;;;;21.57;14.80;;;;;;;20.03;100.00;99353.05;4085796;86;28504;-83
2021/09/14 07:05:05;;;;;;;22.80;14.80;;;;;;;20.27;100.00;99361.28;4086554;87;28455;-83
2021/09/14 07:11:06;;;;;;;25.02;14.83;;;;;;;20.33;100.00;99360.12;4081115;86;28547;-83
2021/09/14 07:17:09;;;;;;;21.12;14.60;;;;;;;20.57;100.00;99362.08;4086148;87;28527;-84
2021/09/14 07:23:10;;;;;;;21.68;14.30;;;;;;;20.73;100.00;99361.89;4085919;85;28543;-84
2021/09/14 07:29:12;;;;;;;28.42;14.73;;;;;;;20.62;100.00;99363.37;4088793;85;28528;-83
2021/09/14 07:35:13;;;;;;;20.72;14.13;;;;;;;20.95;100.00;99365.48;3988074;88;28519;-83
2021/09/14 07:41:15;;;;;;;22.00;14.25;;;;;;;21.15;100.00;99372.59;4054567;86;28494;-83
2021/09/14 07:47:17;;;;;;;21.70;13.45;;;;;;;21.17;100.00;99373.69;4032493;87;28499;-83
2021/09/14 07:53:19;;;;;;;21.30;13.62;;;;;;;21.31;100.00;99372.41;4039241;87;28491;-81
2021/09/14 07:59:23;;;;;;;23.12;13.25;;;;;;;21.43;100.00;99384.25;4070119;86;28513;-83
2021/09/14 08:05:27;;;;;;;18.07;12.70;;;;;;;21.55;100.00;99387.92;4018144;88;28531;-84
2021/09/14 08:11:28;;;;;;;20.40;13.40;;;;;;;21.85;100.00;99382.55;4071690;86;28467;-83
2021/09/14 08:17:29;;;;;;;22.73;13.45;;;;;;;21.92;100.00;99382.74;4050193;85;28504;-82
2021/09/14 08:23:32;;;;;;;19.45;13.53;;;;;;;22.17;100.00;99384.24;4053631;86;28461;-83
2021/09/14 08:29:34;;;;;;;19.23;12.37;;;;;;;22.52;100.00;99381.20;4055777;86;28511;-84
2021/09/14 08:35:35;;;;;;;16.12;11.35;;;;;;;22.90;100.00;99381.56;4102296;86;28517;-83
2021/09/14 08:41:37;;;;;;;16.00;11.05;;;;;;;22.97;100.00;99377.28;4149628;85;28459;-84
2021/09/14 08:47:39;;;;;;;16.87;11.45;;;;;;;22.98;100.00;99378.10;4063680;86;28500;-85
2021/09/14 08:53:41;;;;;;;14.35;9.93;;;;;;;23.12;100.00;99372.03;4064457;85;28914;-83
2021/09/14 08:59:49;;;;;;;14.13;10.43;;;;;;;22.77;94.22;99383.17;4123349;85;28553;-84
2021/09/14 09:05:49;;;;;;;14.20;10.32;;;;;;;22.90;95.07;99380.98;4161821;85;28561;-85
2021/09/14 09:12:03;;;;;;;17.73;10.98;;;;;;;22.95;95.51;99382.27;4131009;86;28480;-86
2021/09/14 09:18:12;;;;;;;15.90;10.55;;;;;;;22.97;95.33;99381.97;4135232;85;28485;-86
2021/09/14 09:24:13;;;;;;;10.93;8.05;;;;;;;23.12;85.59;99385.74;4109838;87;28453;-84
2021/09/14 09:30:18;;;;;;;9.98;6.40;;;;;;;23.34;82.31;99381.47;4125408;85;28578;-90
2021/09/14 09:36:25;;;;;;;10.68;7.03;;;;;;;23.56;73.49;99390.86;4140256;85;28529;-84
2021/09/14 09:42:31;;;;;;;10.28;7.40;;;;;;;23.53;75.93;99391.48;4144700;85;28611;-82
2021/09/14 09:48:35;;;;;;;8.10;5.93;;;;;;;23.73;77.43;99385.27;4143952;85;28479;-81
2021/09/14 09:54:37;;;;;;;9.83;6.60;;;;;;;23.54;73.96;99384.87;4144068;85;28529;-81
2021/09/14 10:00:40;;;;;;;10.50;6.85;;;;;;;23.81;68.38;99376.30;4143754;86;28502;-82
2021/09/14 10:06:52;;;;;;;9.25;5.90;;;;;;;23.93;68.45;99377.09;4091148;87;28492;-81
2021/09/14 10:12:59;;;;;;;8.83;6.35;;;;;;;24.13;68.46;99366.74;4137073;86;28482;-83
2021/09/14 10:19:27;;;;;;;10.93;6.70;;;;;;;24.04;67.56;99359.25;4058869;88;28539;-81
2021/09/14 10:25:29;;;;;;;10.32;6.72;;;;;;;24.25;66.08;99359.30;4130314;84;28569;-81
2021/09/14 10:31:31;;;;;;;10.78;7.58;;;;;;;24.15;64.25;99361.19;4059107;88;28487;-81
2021/09/14 10:37:33;;;;;;;12.23;7.28;;;;;;;24.11;59.34;99358.84;4132913;86;28524;-78
2021/09/14 10:43:34;;;;;;;10.15;7.08;;;;;;;24.49;58.44;99353.44;4126387;85;28473;-78
2021/09/14 10:50:00;;;;;;;11.68;7.10;;;;;;;24.96;60.61;99351.59;4129816;85;28480;-78
2021/09/14 10:56:02;;;;;;;10.43;7.78;;;;;;;25.24;61.53;99356.00;4115818;86;28477;-78
2021/09/14 11:02:04;;;;;;;12.05;7.50;;;;;;;25.58;60.01;99350.30;4131924;84;28480;-79
2021/09/14 11:08:09;;;;;;;7.97;6.87;;;;;;;25.73;56.78;99357.25;4176115;84;28583;-77
2021/09/14 11:14:11;;;;;;;10.23;7.00;;;;;;;25.92;53.33;99356.09;4083925;87;28466;-78
2021/09/14 11:20:19;;;;;;;11.48;7.85;;;;;;;26.09;56.71;99348.36;4092941;85;28506;-79
2021/09/14 11:26:21;;;;;;;14.00;8.08;;;;;;;25.53;60.49;99348.52;4100321;86;28522;-78
2021/09/14 11:32:22;;;;;;;13.45;8.13;;;;;;;25.68;60.08;99345.04;4037613;87;28483;-79
2021/09/14 11:38:25;;;;;;;13.70;8.15;;;;;;;25.40;61.84;99342.00;3988448;89;28465;-79
2021/09/14 11:44:28;;;;;;;13.43;8.55;;;;;;;25.81;58.89;99339.91;3988325;89;28486;-77
2021/09/14 11:50:33;;;;;;;12.75;8.00;;;;;;;26.20;58.58;99335.08;3988472;88;28474;-79
2021/09/14 11:56:35;;;;;;;12.43;8.63;;;;;;;26.13;55.04;99332.77;4039475;88;28462;-79
2021/09/14 12:02:36;;;;;;;12.85;7.83;;;;;;;26.28;55.97;99330.08;3969779;89;28479;-80
2021/09/14 12:08:41;;;;;;;10.38;7.37;;;;;;;26.45;52.68;99324.52;3994057;88;28512;-78
2021/09/14 12:14:43;;;;;;;10.97;7.93;;;;;;;26.35;53.89;99332.35;3928237;88;43567;-81
2021/09/14 12:20:45;;;;;;;9.53;7.25;;;;;;;25.68;56.26;99327.94;4027526;86;28498;-76
2021/09/14 12:26:51;;;;;;;12.25;7.90;;;;;;;25.28;59.42;99327.53;3926484;90;28510;-76
2021/09/14 12:32:50;;;;;;;11.22;7.58;;;;;;;25.10;59.51;99332.21;4019484;87;28526;-78
2021/09/14 12:38:53;;;;;;;11.90;8.03;;;;;;;25.07;61.96;99324.58;3976906;89;28526;-77
2021/09/14 12:44:56;;;;;;;12.30;7.40;;;;;;;25.39;59.68;99321.12;4045509;87;28473;-77
2021/09/14 12:50:57;;;;;;;12.53;8.33;;;;;;;25.50;59.56;99318.06;3976520;89;28508;-80
2021/09/14 12:56:59;;;;;;;12.78;7.53;;;;;;;25.37;58.53;99315.72;4047460;87;28493;-80
2021/09/14 13:03:00;;;;;;;10.53;7.85;;;;;;;26.05;57.34;99311.59;4068065;85;28571;-82
2021/09/14 13:09:01;;;;;;;12.35;7.87;;;;;;;25.66;58.27;99304.61;4050299;86;28622;-83
2021/09/14 13:21:26;;;;;;;11.85;8.45;;;;;;;26.02;55.70;99299.28;3968526;88;28480;-82
2021/09/14 13:27:28;;;;;;;11.68;8.48;;;;;;;26.14;54.39;99299.98;4012394;87;28455;-85
2021/09/14 13:33:29;;;;;;;11.30;7.30;;;;;;;25.84;54.61;99296.56;4073921;85;28464;-83
2021/09/14 13:39:31;;;;;;;12.58;7.87;;;;;;;25.52;56.95;99301.48;4066039;87;28496;-82
2021/09/14 13:51:52;;;;;;;12.10;7.60;;;;;;;25.23;57.60;99284.23;4059331;88;28499;-83
2021/09/14 13:57:53;;;;;;;11.70;7.95;;;;;;;24.78;58.89;99281.44;4059601;88;28457;-82
2021/09/14 14:03:56;;;;;;;13.13;8.00;;;;;;;24.84;57.31;99275.22;4060196;87;28500;-84
2021/09/14 14:09:57;;;;;;;12.55;8.18;;;;;;;25.28;56.97;99278.00;4060943;87;28481;-85
2021/09/14 14:15:58;;;;;;;11.20;7.20;;;;;;;25.20;56.46;99271.38;4093289;86;28489;-84
2021/09/14 14:22:00;;;;;;;10.95;7.20;;;;;;;25.29;58.85;99263.66;4124338;86;28502;-82
2021/09/14 14:28:06;;;;;;;9.83;6.90;;;;;;;25.53;59.85;99250.01;4126076;85;28504;-84
2021/09/14 14:34:07;;;;;;;9.77;7.20;;;;;;;25.58;58.54;99248.44;4131939;84;28512;-82
2021/09/14 14:40:10;;;;;;;13.53;7.30;;;;;;;25.64;60.09;99243.57;4137209;84;35095;-81
2021/09/14 14:46:11;;;;;;;15.30;8.08;;;;;;;25.68;60.35;99242.59;4169068;84;28487;-82
2021/09/14 14:52:13;;;;;;;11.97;7.70;;;;;;;24.80;56.86;99250.06;4146067;84;28468;-82
2021/09/14 14:58:15;;;;;;;11.33;7.80;;;;;;;24.90;59.09;99251.12;4167963;84;28503;-85
2021/09/14 15:04:18;;;;;;;13.15;8.00;;;;;;;24.68;60.92;99252.84;4138346;84;28502;-86
2021/09/14 15:10:19;;;;;;;9.98;7.47;;;;;;;24.60;61.87;99248.95;4138278;84;28546;-86
2021/09/14 15:16:21;;;;;;;11.90;7.17;;;;;;;24.34;63.09;99255.77;4089059;86;28498;-84
2021/09/14 15:22:23;;;;;;;11.40;7.72;;;;;;;24.64;63.74;99261.50;4087355;86;28524;-85
2021/09/14 15:28:28;;;;;;;13.13;7.08;;;;;;;24.34;64.89;99259.88;4175071;84;28496;-85
2021/09/14 15:34:30;;;;;;;12.80;7.53;;;;;;;24.68;65.12;99267.14;4054617;87;28476;-86
2021/09/14 15:40:32;;;;;;;12.23;7.40;;;;;;;24.55;64.65;99267.54;4022070;88;28499;-86
2021/09/14 15:46:33;;;;;;;14.78;7.85;;;;;;;24.54;64.64;99267.30;4106325;86;28497;-85
2021/09/14 15:52:35;;;;;;;14.35;7.85;;;;;;;24.27;66.01;99269.14;4039091;87;28520;-87
2021/09/14 15:58:36;;;;;;;16.45;7.35;;;;;;;24.42;65.42;99270.09;4024404;88;28547;-86
2021/09/14 16:04:38;;;;;;;10.03;6.95;;;;;;;24.31;66.14;99272.86;3969955;89;28531;-85
2021/09/14 16:10:39;;;;;;;11.08;7.20;;;;;;;24.32;67.13;99282.75;4036901;88;28498;-82
2021/09/14 16:16:41;;;;;;;11.65;7.08;;;;;;;24.06;67.63;99292.50;3969455;90;28577;-84
2021/09/14 16:22:43;;;;;;;10.93;6.95;;;;;;;23.92;68.51;99300.78;4040581;85;28516;-81
2021/09/14 16:28:45;;;;;;;12.35;7.42;;;;;;;24.06;68.89;99298.53;4028276;86;28506;-80
2021/09/14 16:34:47;;;;;;;10.48;6.90;;;;;;;23.88;72.02;99297.61;4046021;86;28492;-84
2021/09/14 16:40:48;;;;;;;11.22;7.33;;;;;;;23.70;72.60;99299.44;3974196;88;28467;-85
2021/09/14 16:46:50;;;;;;;10.28;7.12;;;;;;;23.52;75.04;99294.63;4062989;87;28550;-82
2021/09/14 16:52:51;;;;;;;10.68;7.50;;;;;;;23.25;79.64;99301.82;4038622;86;28479;-79
2021/09/14 16:58:53;;;;;;;11.25;7.37;;;;;;;22.93;89.71;99302.81;4151012;84;28501;-83
2021/09/14 17:04:54;;;;;;;10.13;7.55;;;;;;;22.57;99.31;99303.00;4125486;85;28475;-82
2021/09/14 17:10:56;;;;;;;11.80;7.25;;;;;;;22.36;97.84;99305.31;4150637;85;28497;-80
2021/09/14 17:17:03;;;;;;;13.45;7.25;;;;;;;22.18;100.00;99303.72;4130750;85;28505;-82
2021/09/14 17:23:02;;;;;;;15.28;7.87;;;;;;;21.94;100.00;99307.44;4149796;84;28537;-83
2021/09/14 17:29:05;;;;;;;11.90;7.58;;;;;;;21.73;100.00;99308.33;4141713;85;28498;-82
2021/09/14 17:35:10;;;;;;;14.43;7.25;;;;;;;21.43;100.00;99312.61;4057701;86;28738;-83
2021/09/14 17:41:13;;;;;;;13.50;8.25;;;;;;;21.22;100.00;99320.86;4036012;88;28499;-83
2021/09/14 17:47:23;;;;;;;14.47;7.67;;;;;;;21.11;100.00;99323.73;4040691;87;28520;-85
2021/09/14 17:53:27;;;;;;;12.13;7.20;;;;;;;20.95;100.00;99323.67;4097573;85;28569;-85
2021/09/14 17:59:33;;;;;;;12.18;8.53;;;;;;;20.89;100.00;99329.22;4038180;87;28546;-85
2021/09/14 18:05:41;;;;;;;16.00;8.35;;;;;;;20.71;100.00;99328.59;4021945;88;28494;-83
2021/09/14 18:11:47;;;;;;;14.30;7.97;;;;;;;20.51;100.00;99333.18;4058815;86;28417;-86
2021/09/14 18:17:53;;;;;;;14.53;8.48;;;;;;;20.53;100.00;99332.33;4079650;86;28511;-86
2021/09/14 18:23:57;;;;;;;12.47;7.55;;;;;;;20.34;100.00;99326.25;4059720;85;28475;-83
2021/09/14 18:30:01;;;;;;;14.95;8.68;;;;;;;20.02;100.00;99335.84;4094388;85;28494;-88
2021/09/14 18:36:06;;;;;;;11.08;8.85;;;;;;;19.85;100.00;99341.69;4123255;84;28520;-82
2021/09/14 18:42:09;;;;;;;13.35;8.68;;;;;;;19.66;100.00;99345.67;4146280;85;28490;-88
2021/09/14 18:48:11;;;;;;;13.08;8.65;;;;;;;19.54;100.00;99343.29;4148882;85;28454;-88
2021/09/14 18:54:14;;;;;;;14.55;9.50;;;;;;;19.45;100.00;99345.81;4132385;84;28465;-86
2021/09/14 19:00:16;;;;;;;12.20;8.83;;;;;;;19.66;100.00;99340.22;4040373;87;28486;-84
2021/09/14 19:06:20;;;;;;;17.73;11.10;;;;;;;19.67;100.00;99354.11;4025624;87;28550;-86
2021/09/14 19:12:22;;;;;;;15.98;10.72;;;;;;;19.68;100.00;99346.73;4025604;87;28537;-85
2021/09/14 19:18:28;;;;;;;15.85;11.25;;;;;;;19.84;100.00;99342.00;4042456;86;28454;-82
2021/09/14 19:27:22;;;;;;;17.37;11.50;;;;;;;19.21;100.00;99366.13;4578020;77;83137;-87
2021/09/14 19:33:24;;;;;;;19.90;12.30;;;;;;;19.43;100.00;99367.10;4343758;80;28468;-85
2021/09/14 19:39:25;;;;;;;16.30;11.03;;;;;;;19.37;100.00;99351.86;4378764;81;28558;-89
2021/09/14 19:45:27;;;;;;;20.70;11.12;;;;;;;19.17;100.00;99363.70;4386817;81;28496;-89
2021/09/14 19:51:28;;;;;;;16.27;10.35;;;;;;;19.19;100.00;99349.25;4434756;78;28516;-89
2021/09/14 19:57:29;;;;;;;18.25;11.63;;;;;;;19.03;100.00;99359.41;4453822;79;28462;-88
2021/09/14 20:03:33;;;;;;;19.15;11.43;;;;;;;18.95;100.00;99352.05;4426110;79;28498;-88
2021/09/14 20:09:34;;;;;;;16.23;11.50;;;;;;;18.74;100.00;99356.74;4412284;80;28448;-89
2021/09/14 20:15:35;;;;;;;17.92;11.73;;;;;;;18.69;100.00;99358.14;4372360;81;28482;-90
2021/09/14 20:21:36;;;;;;;17.50;12.03;;;;;;;18.59;100.00;99350.83;4357317;81;28459;-89
2021/09/14 20:27:38;;;;;;;16.32;10.85;;;;;;;18.52;100.00;99362.55;4373736;81;28535;-88
2021/09/14 20:33:39;;;;;;;17.90;11.43;;;;;;;18.50;100.00;99360.09;4371193;81;28430;-87
2021/09/14 20:39:40;;;;;;;17.32;11.50;;;;;;;18.45;100.00;99353.84;4350662;80;28468;-86
2021/09/14 20:45:41;;;;;;;19.10;10.82;;;;;;;18.50;100.00;99358.73;4348769;81;28441;-90
2021/09/14 20:51:46;;;;;;;18.48;11.43;;;;;;;18.35;100.00;99356.05;4372016;81;28469;-83
2021/09/14 20:57:49;;;;;;;17.40;12.23;;;;;;;18.24;100.00;99355.24;4370865;81;28451;-86
2021/09/14 21:03:50;;;;;;;16.70;12.55;;;;;;;18.17;100.00;99351.98;4389039;81;28547;-84
2021/09/14 21:09:51;;;;;;;26.42;15.90;;;;;;;18.21;100.00;99353.87;4396249;81;28701;-82
2021/09/14 21:15:53;;;;;;;18.10;13.38;;;;;;;18.28;100.00;99353.63;4382287;80;28534;-82
2021/09/14 21:21:55;;;;;;;20.92;12.80;;;;;;;18.30;100.00;99354.69;4388071;81;28527;-84
2021/09/14 21:28:00;;;;;;;19.62;12.47;;;;;;;18.13;100.00;99353.09;4320788;81;28907;-84
2021/09/14 21:34:03;;;;;;;16.55;11.30;;;;;;;18.17;100.00;99346.53;4335543;81;28460;-83
2021/09/14 21:40:07;;;;;;;18.12;12.58;;;;;;;18.15;100.00;99344.11;4382741;81;28470;-85
2021/09/14 21:46:08;;;;;;;19.70;11.68;;;;;;;18.03;100.00;99338.94;4412416;81;28525;-83
2021/09/14 21:52:10;;;;;;;19.55;13.40;;;;;;;17.84;100.00;99340.02;4391528;81;28516;-80
2021/09/14 21:58:12;;;;;;;27.30;16.50;;;;;;;18.14;100.00;99335.68;4320883;82;28520;-83
2021/09/14 22:04:14;;;;;;;23.00;15.03;;;;;;;17.96;100.00;99337.83;4401232;80;28504;-81
2021/09/14 22:10:17;;;;;;;23.73;14.53;;;;;;;18.01;100.00;99337.55;4394595;81;28492;-85
2021/09/14 22:16:19;;;;;;;27.02;17.85;;;;;;;17.93;100.00;99332.11;4396524;81;28502;-83
2021/09/14 22:22:23;;;;;;;21.90;16.10;;;;;;;18.07;100.00;99332.41;4382875;81;28479;-84
2021/09/14 22:28:25;;;;;;;25.90;16.05;;;;;;;18.00;100.00;99334.55;4390753;79;28506;-83
2021/09/14 22:34:26;;;;;;;28.60;16.82;;;;;;;17.91;100.00;99328.33;4358096;81;28469;-83
2021/09/14 22:40:27;;;;;;;34.90;20.75;;;;;;;17.92;100.00;99331.31;4403394;78;28545;-84
2021/09/14 22:46:29;;;;;;;30.92;19.25;;;;;;;17.98;100.00;99332.13;4446117;80;28478;-84
2021/09/14 22:52:34;;;;;;;31.62;18.77;;;;;;;17.88;100.00;99328.05;4405528;80;28492;-84
2021/09/14 22:58:33;;;;;;;32.40;20.72;;;;;;;17.98;100.00;99329.41;4325343;81;28514;-83
2021/09/14 23:04:34;;;;;;;28.75;17.62;;;;;;;17.96;100.00;99325.59;4330445;80;28475;-81
2021/09/14 23:10:36;;;;;;;29.95;17.92;;;;;;;17.76;100.00;99333.22;4339778;81;28590;-83
2021/09/14 23:16:37;;;;;;;24.55;16.55;;;;;;;17.64;100.00;99330.77;4368653;81;28474;-84
2021/09/14 23:22:41;;;;;;;25.15;17.20;;;;;;;17.38;100.00;99329.92;4377959;81;28480;-84
2021/09/14 23:28:43;;;;;;;24.65;15.70;;;;;;;17.31;100.00;99330.18;4372714;81;28542;-85
2021/09/14 23:34:44;;;;;;;27.70;18.12;;;;;;;17.19;100.00;99327.70;4322696;81;28427;-82
2021/09/14 23:40:46;;;;;;;21.62;15.13;;;;;;;17.34;100.00;99325.56;4373836;81;28495;-83
2021/09/14 23:46:47;;;;;;;23.18;16.12;;;;;;;17.09;100.00;99314.92;4286747;83;28535;-84
2021/09/14 23:52:49;;;;;;;27.67;16.65;;;;;;;16.94;100.00;99312.94;4344081;81;28449;-83
2021/09/14 23:58:50;;;;;;;24.90;15.78;;;;;;;16.96;100.00;99305.86;4450058;80;28546;-84
